Time;durP1;ratioP1;P1;durP2;ratioP2;P2;SDS_P1;SDS_P2;PMS_P1;PMS_P2;Temp;Humidity;BMP_temperature;BMP_pressure;BME280_temperature;BME280_humidity;BME280_pressure;Samples;Min_cycle;Max_cycle;Signal;HPM_P1;HPM_P2
2022/10/16 00:03:33;;;;;;;60.45;57.00;;;;;;;;;;10183101;28;20045;-71
2022/10/16 00:08:30;;;;;;;61.65;58.20;;;;;;;;;;10175947;28;20122;-71
2022/10/16 00:13:26;;;;;;;55.15;51.92;;;;;;;;;;10183494;28;20044;-71
2022/10/16 00:18:22;;;;;;;51.47;48.67;;;;;;;;;;10179786;28;20034;-72
2022/10/16 00:23:19;;;;;;;47.67;45.00;;;;;;;;;;10179194;28;20041;-71
2022/10/16 00:28:15;;;;;;;45.08;42.47;;;;;;;;;;10180395;28;20061;-71
2022/10/16 00:33:11;;;;;;;39.30;36.88;;;;;;;;;;10177499;28;20042;-71
2022/10/16 00:38:08;;;;;;;28.77;26.83;;;;;;;;;;10169688;28;20416;-71
2022/10/16 00:43:14;;;;;;;25.30;23.38;;;;;;;;;;10169085;28;20050;-71
2022/10/16 00:48:12;;;;;;;20.33;18.95;;;;;;;;;;10160439;28;20052;-71
2022/10/16 00:53:08;;;;;;;18.27;17.08;;;;;;;;;;10168473;28;20419;-72
2022/10/16 00:58:05;;;;;;;19.92;18.27;;;;;;;;;;10172253;28;20404;-71
2022/10/16 01:03:02;;;;;;;16.40;14.85;;;;;;;;;;10178728;28;20510;-71
2022/10/16 01:08:04;;;;;;;15.60;14.40;;;;;;;;;;10179405;28;20049;-71
2022/10/16 01:13:11;;;;;;;14.52;13.35;;;;;;;;;;10170414;28;20038;-71
2022/10/16 01:18:13;;;;;;;14.10;12.88;;;;;;;;;;10173112;28;20527;-71
2022/10/16 01:23:14;;;;;;;14.40;13.40;;;;;;;;;;10179764;28;20046;-71
2022/10/16 01:28:12;;;;;;;13.05;12.05;;;;;;;;;;10185249;28;20049;-71
2022/10/16 01:33:20;;;;;;;13.18;12.27;;;;;;;;;;10178357;28;20053;-71
2022/10/16 01:38:30;;;;;;;14.18;13.07;;;;;;;;;;10180867;28;20675;-71
2022/10/16 01:43:30;;;;;;;13.80;12.80;;;;;;;;;;10187548;28;20046;-71
2022/10/16 01:48:26;;;;;;;15.52;14.27;;;;;;;;;;10185836;28;20057;-71
2022/10/16 01:53:23;;;;;;;15.90;14.63;;;;;;;;;;10179825;28;20061;-72
2022/10/16 01:58:20;;;;;;;15.05;13.85;;;;;;;;;;10181836;28;20068;-71
2022/10/16 02:03:18;;;;;;;15.30;14.10;;;;;;;;;;10178748;28;20050;-71
2022/10/16 02:08:14;;;;;;;14.98;13.85;;;;;;;;;;10181256;28;20054;-71
2022/10/16 02:13:13;;;;;;;16.17;14.95;;;;;;;;;;10174641;28;20046;-71
2022/10/16 02:18:10;;;;;;;15.50;14.50;;;;;;;;;;10185388;28;20046;-71
2022/10/16 02:23:11;;;;;;;16.38;15.25;;;;;;;;;;10190386;28;20053;-71
2022/10/16 02:28:07;;;;;;;16.33;15.20;;;;;;;;;;10179619;28;20043;-71
2022/10/16 02:33:06;;;;;;;19.45;17.70;;;;;;;;;;10183732;28;20038;-71
2022/10/16 02:38:03;;;;;;;17.35;16.00;;;;;;;;;;10185457;28;20427;-71
2022/10/16 02:42:59;;;;;;;18.05;16.48;;;;;;;;;;10194667;28;20042;-71
2022/10/16 02:47:55;;;;;;;18.92;17.45;;;;;;;;;;10176570;28;20054;-72
2022/10/16 02:52:51;;;;;;;18.60;17.33;;;;;;;;;;10176662;28;20044;-71
2022/10/16 02:57:48;;;;;;;19.20;17.95;;;;;;;;;;10176079;28;20049;-71
2022/10/16 03:02:44;;;;;;;18.05;16.95;;;;;;;;;;10168716;28;20443;-71
2022/10/16 03:07:40;;;;;;;20.20;18.35;;;;;;;;;;10184150;28;20038;-71
2022/10/16 03:12:37;;;;;;;19.60;18.25;;;;;;;;;;10179120;28;20491;-71
2022/10/16 03:17:33;;;;;;;19.70;18.40;;;;;;;;;;10174671;28;20585;-71
2022/10/16 03:22:29;;;;;;;21.50;20.05;;;;;;;;;;10169051;28;20061;-72
2022/10/16 03:27:25;;;;;;;23.90;22.40;;;;;;;;;;10189589;28;20054;-72
2022/10/16 03:32:24;;;;;;;24.60;23.20;;;;;;;;;;10177146;28;20684;-72
2022/10/16 03:37:21;;;;;;;26.13;24.42;;;;;;;;;;10181556;28;20141;-71
2022/10/16 03:42:17;;;;;;;26.52;24.67;;;;;;;;;;10174619;28;20056;-72
2022/10/16 03:47:14;;;;;;;26.95;25.40;;;;;;;;;;10186332;28;20048;-71
2022/10/16 03:52:10;;;;;;;26.95;24.88;;;;;;;;;;10176505;28;20046;-72
2022/10/16 03:57:06;;;;;;;26.27;24.80;;;;;;;;;;10171156;28;20536;-71
2022/10/16 04:02:03;;;;;;;28.05;26.35;;;;;;;;;;10172229;28;20491;-72
2022/10/16 04:06:59;;;;;;;27.73;25.88;;;;;;;;;;10182172;28;20081;-71
2022/10/16 04:11:55;;;;;;;27.10;25.50;;;;;;;;;;10180822;28;20053;-71
2022/10/16 04:16:52;;;;;;;26.75;24.65;;;;;;;;;;10180175;28;20038;-71
2022/10/16 04:21:48;;;;;;;27.15;25.40;;;;;;;;;;10176799;28;20046;-71
2022/10/16 04:26:44;;;;;;;27.40;25.92;;;;;;;;;;10179118;28;20038;-71
2022/10/16 04:31:40;;;;;;;25.70;24.20;;;;;;;;;;10175971;28;20057;-71
2022/10/16 04:36:37;;;;;;;26.75;25.05;;;;;;;;;;10180088;28;20049;-71
2022/10/16 04:41:33;;;;;;;29.10;27.38;;;;;;;;;;10180905;28;20069;-71
2022/10/16 04:46:29;;;;;;;28.63;26.90;;;;;;;;;;10175074;28;20055;-68
2022/10/16 04:51:26;;;;;;;29.35;27.75;;;;;;;;;;10175617;28;20566;-71
2022/10/16 04:56:23;;;;;;;29.67;27.77;;;;;;;;;;10176314;28;20060;-71
2022/10/16 05:01:19;;;;;;;29.83;28.02;;;;;;;;;;10178371;28;20034;-71
2022/10/16 05:06:15;;;;;;;30.88;28.90;;;;;;;;;;10171991;28;20042;-71
2022/10/16 05:11:11;;;;;;;29.95;28.15;;;;;;;;;;10171669;28;20053;-72
2022/10/16 05:16:08;;;;;;;34.25;32.10;;;;;;;;;;10177911;28;20048;-71
2022/10/16 05:21:05;;;;;;;32.40;30.38;;;;;;;;;;10179063;28;20050;-71
2022/10/16 05:26:01;;;;;;;32.90;31.10;;;;;;;;;;10175473;28;20186;-72
2022/10/16 05:30:59;;;;;;;37.83;34.63;;;;;;;;;;10177531;28;20045;-71
2022/10/16 05:35:55;;;;;;;36.78;34.67;;;;;;;;;;10182570;28;20050;-71
2022/10/16 05:40:54;;;;;;;39.15;36.95;;;;;;;;;;10179361;28;20484;-71
2022/10/16 05:45:57;;;;;;;41.20;38.75;;;;;;;;;;10180337;28;20046;-71
2022/10/16 05:51:04;;;;;;;43.53;41.13;;;;;;;;;;10181043;28;20050;-71
2022/10/16 05:56:01;;;;;;;41.67;39.30;;;;;;;;;;10173165;28;20054;-71
2022/10/16 06:00:58;;;;;;;42.55;40.25;;;;;;;;;;10184199;28;20505;-71
2022/10/16 06:05:55;;;;;;;42.30;40.03;;;;;;;;;;10180114;28;20054;-71
2022/10/16 06:11:01;;;;;;;42.42;39.85;;;;;;;;;;10178676;28;20077;-72
2022/10/16 06:15:59;;;;;;;39.88;37.63;;;;;;;;;;10179051;28;20069;-71
2022/10/16 06:20:56;;;;;;;40.83;38.28;;;;;;;;;;10178894;28;20133;-71
2022/10/16 06:25:52;;;;;;;38.30;35.97;;;;;;;;;;10184056;28;20037;-71
2022/10/16 06:30:48;;;;;;;40.88;38.38;;;;;;;;;;10183721;28;20439;-71
2022/10/16 06:35:45;;;;;;;42.80;40.17;;;;;;;;;;10181671;28;20069;-71
2022/10/16 06:40:41;;;;;;;47.13;44.15;;;;;;;;;;10171195;28;20049;-71
2022/10/16 06:45:37;;;;;;;48.28;45.58;;;;;;;;;;10187154;28;20049;-71
2022/10/16 06:50:34;;;;;;;50.55;47.60;;;;;;;;;;10174426;28;20713;-71
2022/10/16 06:55:30;;;;;;;55.10;51.75;;;;;;;;;;10180644;28;20056;-71
2022/10/16 07:00:26;;;;;;;55.08;52.00;;;;;;;;;;10182308;28;20050;-71
2022/10/16 07:05:22;;;;;;;57.25;54.00;;;;;;;;;;10176247;28;20046;-71
2022/10/16 07:10:19;;;;;;;60.97;57.67;;;;;;;;;;10184414;28;20049;-71
2022/10/16 07:15:15;;;;;;;55.97;52.90;;;;;;;;;;10185578;28;20046;-72
2022/10/16 07:20:11;;;;;;;56.05;52.85;;;;;;;;;;10177610;28;20054;-71
2022/10/16 07:25:08;;;;;;;50.35;47.42;;;;;;;;;;10183073;28;20068;-71
2022/10/16 07:30:05;;;;;;;45.80;42.60;;;;;;;;;;10183210;28;20057;-71
2022/10/16 07:35:04;;;;;;;45.05;42.28;;;;;;;;;;10170604;28;20744;-71
2022/10/16 07:40:01;;;;;;;48.88;46.00;;;;;;;;;;10173840;28;20396;-71
2022/10/16 07:44:57;;;;;;;45.97;43.22;;;;;;;;;;10183641;28;20057;-71
2022/10/16 07:49:53;;;;;;;49.05;46.40;;;;;;;;;;10185245;28;20455;-71
2022/10/16 07:54:49;;;;;;;46.25;43.25;;;;;;;;;;10174632;28;20049;-72
2022/10/16 07:59:46;;;;;;;38.10;36.00;;;;;;;;;;10198225;28;20042;-72
2022/10/16 08:04:42;;;;;;;35.00;33.08;;;;;;;;;;10166113;28;20046;-72
2022/10/16 08:09:39;;;;;;;33.67;31.65;;;;;;;;;;10181090;28;20060;-71
2022/10/16 08:14:35;;;;;;;35.38;32.80;;;;;;;;;;10176124;28;20044;-71
2022/10/16 08:19:34;;;;;;;29.98;28.08;;;;;;;;;;10181485;28;20041;-71
2022/10/16 08:24:31;;;;;;;28.83;27.13;;;;;;;;;;10178180;28;20462;-71
2022/10/16 08:29:27;;;;;;;25.98;24.25;;;;;;;;;;10181178;28;20057;-70
2022/10/16 08:34:23;;;;;;;24.98;23.33;;;;;;;;;;10180518;28;20706;-71
2022/10/16 08:39:20;;;;;;;21.48;20.08;;;;;;;;;;10167795;28;20503;-71
2022/10/16 08:44:19;;;;;;;19.88;18.65;;;;;;;;;;10183376;28;20068;-70
2022/10/16 08:49:16;;;;;;;18.20;16.88;;;;;;;;;;10180435;28;20056;-71
2022/10/16 08:54:26;;;;;;;17.33;16.30;;;;;;;;;;10186121;28;20057;-70
2022/10/16 08:59:22;;;;;;;16.70;15.50;;;;;;;;;;10194655;28;20042;-71
2022/10/16 09:04:37;;;;;;;17.75;16.55;;;;;;;;;;10188531;28;20056;-71
2022/10/16 09:09:42;;;;;;;16.75;15.65;;;;;;;;;;10193606;28;20072;-70
2022/10/16 09:14:49;;;;;;;15.27;14.27;;;;;;;;;;10195662;28;20038;-70
2022/10/16 09:19:53;;;;;;;15.90;14.68;;;;;;;;;;10186635;28;20038;-70
2022/10/16 09:24:50;;;;;;;14.95;13.95;;;;;;;;;;10183556;28;20045;-71
2022/10/16 09:29:46;;;;;;;13.77;12.77;;;;;;;;;;10184199;28;20499;-71
2022/10/16 09:34:45;;;;;;;13.18;12.07;;;;;;;;;;10193652;28;20052;-71
2022/10/16 09:39:51;;;;;;;13.25;11.85;;;;;;;;;;10194615;28;20045;-70
2022/10/16 09:44:49;;;;;;;11.23;10.32;;;;;;;;;;10189358;28;20053;-70
2022/10/16 09:49:53;;;;;;;11.45;10.45;;;;;;;;;;10186907;28;20038;-70
2022/10/16 09:54:56;;;;;;;10.50;9.70;;;;;;;;;;10192373;28;20515;-71
2022/10/16 09:59:54;;;;;;;11.25;9.98;;;;;;;;;;10188835;28;20042;-71
2022/10/16 10:04:56;;;;;;;10.43;9.38;;;;;;;;;;10171712;28;20534;-70
2022/10/16 10:09:54;;;;;;;10.15;9.35;;;;;;;;;;10187457;28;20037;-71
2022/10/16 10:14:51;;;;;;;11.63;9.68;;;;;;;;;;10187412;28;20549;-71
2022/10/16 10:19:48;;;;;;;10.35;9.65;;;;;;;;;;10184148;28;20520;-71
2022/10/16 10:24:45;;;;;;;10.98;9.93;;;;;;;;;;10178238;28;20046;-71
2022/10/16 10:29:50;;;;;;;11.75;10.75;;;;;;;;;;10189286;28;20048;-70
2022/10/16 10:34:53;;;;;;;10.80;9.90;;;;;;;;;;10186727;28;20052;-70
2022/10/16 10:40:18;;;;;;;10.52;9.65;;;;;;;;;;10165156;28;20046;-70
2022/10/16 10:45:20;;;;;;;10.73;9.85;;;;;;;;;;10164495;28;20727;-70
2022/10/16 10:50:24;;;;;;;9.13;8.40;;;;;;;;;;10179130;28;20054;-71
2022/10/16 10:55:39;;;;;;;8.80;7.90;;;;;;;;;;10184337;28;20045;-70
2022/10/16 11:00:45;;;;;;;9.27;8.35;;;;;;;;;;10171568;28;20045;-70
2022/10/16 11:05:44;;;;;;;9.15;8.02;;;;;;;;;;10177201;28;20401;-71
2022/10/16 11:10:46;;;;;;;11.10;8.20;;;;;;;;;;10182678;28;20046;-71
2022/10/16 11:15:44;;;;;;;8.25;7.63;;;;;;;;;;10185473;28;20050;-72
2022/10/16 11:20:42;;;;;;;8.43;7.72;;;;;;;;;;10180572;28;20080;-71
2022/10/16 11:25:39;;;;;;;8.80;7.10;;;;;;;;;;10172217;28;20061;-71
2022/10/16 11:30:44;;;;;;;7.63;6.93;;;;;;;;;;10173864;28;20504;-71
2022/10/16 11:36:00;;;;;;;7.50;6.80;;;;;;;;;;10183679;28;20052;-70
2022/10/16 11:40:58;;;;;;;7.68;6.85;;;;;;;;;;10175153;28;20655;-70
2022/10/16 11:45:57;;;;;;;7.07;6.47;;;;;;;;;;10163448;28;20061;-69
2022/10/16 11:50:54;;;;;;;7.50;6.80;;;;;;;;;;10170496;28;20041;-70
2022/10/16 11:55:51;;;;;;;10.00;8.10;;;;;;;;;;10165009;28;20050;-70
2022/10/16 12:00:59;;;;;;;8.20;7.50;;;;;;;;;;10183324;28;20427;-70
2022/10/16 12:06:14;;;;;;;7.97;7.20;;;;;;;;;;10178588;28;20045;-70
2022/10/16 12:11:23;;;;;;;7.72;6.95;;;;;;;;;;10176214;28;20423;-71
2022/10/16 12:16:21;;;;;;;7.97;7.15;;;;;;;;;;10176638;28;20057;-70
2022/10/16 12:21:19;;;;;;;7.88;7.18;;;;;;;;;;10179355;28;20044;-70
2022/10/16 12:26:23;;;;;;;10.18;7.55;;;;;;;;;;10173481;28;20042;-70
2022/10/16 12:31:20;;;;;;;7.93;7.13;;;;;;;;;;10169228;28;20479;-70
2022/10/16 12:36:27;;;;;;;9.02;7.28;;;;;;;;;;10173643;28;20050;-70
2022/10/16 12:41:27;;;;;;;7.72;6.80;;;;;;;;;;10185653;28;20042;-70
2022/10/16 12:46:29;;;;;;;8.80;6.75;;;;;;;;;;10173699;28;20054;-70
2022/10/16 12:51:28;;;;;;;8.82;6.07;;;;;;;;;;10183899;28;20049;-70
2022/10/16 12:56:31;;;;;;;6.68;6.13;;;;;;;;;;10178333;28;20046;-70
2022/10/16 13:01:27;;;;;;;6.75;5.95;;;;;;;;;;10178711;28;20129;-70
2022/10/16 13:06:34;;;;;;;7.25;6.20;;;;;;;;;;10198055;28;20427;-70
2022/10/16 13:11:39;;;;;;;9.68;6.05;;;;;;;;;;10182525;28;20042;-72
2022/10/16 13:16:44;;;;;;;7.70;6.38;;;;;;;;;;10178365;28;20046;-72
2022/10/16 13:21:49;;;;;;;9.18;5.97;;;;;;;;;;10182381;28;20053;-72
2022/10/16 13:27:01;;;;;;;7.53;6.03;;;;;;;;;;10174107;28;20048;-72
2022/10/16 13:31:58;;;;;;;7.57;6.07;;;;;;;;;;10174184;28;20047;-71
2022/10/16 13:36:54;;;;;;;6.50;5.90;;;;;;;;;;10189050;28;20669;-71
2022/10/16 13:42:09;;;;;;;6.90;6.20;;;;;;;;;;10193842;28;20438;-72
2022/10/16 13:47:05;;;;;;;8.82;6.13;;;;;;;;;;10180669;28;20056;-72
2022/10/16 13:52:02;;;;;;;7.20;5.90;;;;;;;;;;10184146;28;20829;-71
2022/10/16 13:57:04;;;;;;;9.27;6.07;;;;;;;;;;10186373;28;20408;-71
2022/10/16 14:02:30;;;;;;;6.93;6.13;;;;;;;;;;10177933;28;20038;-72
2022/10/16 14:07:28;;;;;;;8.43;6.30;;;;;;;;;;10175777;28;20045;-71
2022/10/16 14:12:24;;;;;;;9.00;5.88;;;;;;;;;;10187001;28;20038;-71
2022/10/16 14:17:28;;;;;;;5.82;5.32;;;;;;;;;;10180590;28;20060;-71
2022/10/16 14:22:35;;;;;;;6.63;6.00;;;;;;;;;;10189824;28;20527;-71
2022/10/16 14:27:33;;;;;;;8.02;6.05;;;;;;;;;;10184486;28;20053;-71
2022/10/16 14:32:29;;;;;;;8.93;6.00;;;;;;;;;;10180902;28;20053;-71
2022/10/16 14:37:27;;;;;;;11.40;5.97;;;;;;;;;;10182662;28;20523;-71
2022/10/16 14:42:24;;;;;;;10.30;5.95;;;;;;;;;;10181773;28;20046;-71
2022/10/16 14:47:24;;;;;;;6.70;5.80;;;;;;;;;;10182867;28;20508;-71
2022/10/16 14:52:21;;;;;;;8.45;6.15;;;;;;;;;;10173386;28;20125;-71
2022/10/16 14:57:19;;;;;;;7.10;6.38;;;;;;;;;;10179181;28;20074;-71
2022/10/16 15:02:16;;;;;;;8.80;6.75;;;;;;;;;;10185078;28;20498;-71
2022/10/16 15:07:12;;;;;;;8.25;6.20;;;;;;;;;;10178804;28;20499;-72
2022/10/16 15:12:08;;;;;;;11.98;5.85;;;;;;;;;;10176715;28;20042;-71
2022/10/16 15:17:04;;;;;;;7.45;6.07;;;;;;;;;;10175671;28;20057;-71
2022/10/16 15:22:01;;;;;;;8.48;6.50;;;;;;;;;;10179691;28;20049;-71
2022/10/16 15:26:57;;;;;;;7.28;6.00;;;;;;;;;;10185291;28;20046;-71
2022/10/16 15:31:53;;;;;;;7.60;5.97;;;;;;;;;;10169814;28;20540;-71
2022/10/16 15:36:50;;;;;;;6.32;5.68;;;;;;;;;;10176274;28;20061;-70
2022/10/16 15:41:50;;;;;;;6.80;6.00;;;;;;;;;;10178921;28;20049;-71
2022/10/16 15:46:47;;;;;;;8.52;6.38;;;;;;;;;;10176690;28;20451;-71
2022/10/16 15:51:44;;;;;;;8.63;5.93;;;;;;;;;;10176737;28;20048;-71
2022/10/16 15:56:40;;;;;;;7.82;6.07;;;;;;;;;;10177756;28;20050;-72
2022/10/16 16:01:37;;;;;;;7.90;6.38;;;;;;;;;;10179678;28;20042;-71
2022/10/16 16:06:34;;;;;;;12.13;6.68;;;;;;;;;;10179094;28;20081;-71
2022/10/16 16:11:31;;;;;;;8.55;6.22;;;;;;;;;;10176239;28;20088;-71
2022/10/16 16:16:28;;;;;;;7.97;6.30;;;;;;;;;;10178836;28;20686;-71
2022/10/16 16:21:24;;;;;;;7.78;6.68;;;;;;;;;;10175115;28;20060;-71
2022/10/16 16:26:20;;;;;;;10.32;7.25;;;;;;;;;;10175702;28;20447;-71
2022/10/16 16:31:17;;;;;;;9.13;6.70;;;;;;;;;;10179124;28;20050;-71
2022/10/16 16:36:13;;;;;;;7.85;7.00;;;;;;;;;;10173296;28;20050;-71
2022/10/16 16:41:14;;;;;;;8.40;7.60;;;;;;;;;;10169101;28;20050;-71
2022/10/16 16:46:11;;;;;;;11.77;7.93;;;;;;;;;;10182141;28;20065;-71
2022/10/16 16:51:09;;;;;;;15.43;8.77;;;;;;;;;;10169162;28;20073;-71
2022/10/16 16:56:06;;;;;;;11.00;8.25;;;;;;;;;;10175906;28;20084;-71
2022/10/16 17:01:03;;;;;;;9.93;8.25;;;;;;;;;;10172962;28;20419;-71
2022/10/16 17:06:16;;;;;;;9.15;8.15;;;;;;;;;;10169797;28;20302;-71
2022/10/16 17:11:17;;;;;;;11.95;9.68;;;;;;;;;;10187387;28;20061;-71
2022/10/16 17:16:13;;;;;;;12.10;9.80;;;;;;;;;;10177867;28;20057;-71
2022/10/16 17:21:10;;;;;;;10.98;9.93;;;;;;;;;;10186329;28;20654;-71
2022/10/16 17:26:11;;;;;;;11.50;10.30;;;;;;;;;;10181794;28;20042;-71
2022/10/16 17:31:08;;;;;;;11.00;10.00;;;;;;;;;;10178688;28;20064;-71
2022/10/16 17:36:06;;;;;;;16.80;10.98;;;;;;;;;;10175639;28;20054;-71
2022/10/16 17:41:16;;;;;;;16.80;11.07;;;;;;;;;;10170448;28;20084;-71
2022/10/16 17:46:14;;;;;;;11.80;10.80;;;;;;;;;;10183546;28;20527;-71
2022/10/16 17:51:11;;;;;;;12.73;11.52;;;;;;;;;;10181542;28;20668;-71
2022/10/16 17:56:11;;;;;;;13.57;12.45;;;;;;;;;;10181224;28;20483;-71
2022/10/16 18:01:18;;;;;;;14.80;12.30;;;;;;;;;;10184199;28;20414;-71
2022/10/16 18:06:14;;;;;;;16.25;13.65;;;;;;;;;;10181054;28;20053;-71
2022/10/16 18:11:18;;;;;;;15.57;13.88;;;;;;;;;;10182291;28;20133;-70
2022/10/16 18:16:14;;;;;;;18.13;14.45;;;;;;;;;;10187039;28;20057;-71
2022/10/16 18:21:13;;;;;;;16.85;15.15;;;;;;;;;;10175192;28;20060;-70
2022/10/16 18:26:10;;;;;;;17.23;15.52;;;;;;;;;;10181414;28;20046;-71
2022/10/16 18:31:08;;;;;;;23.85;16.83;;;;;;;;;;10180080;28;20045;-70
2022/10/16 18:36:06;;;;;;;19.15;17.20;;;;;;;;;;10187403;28;20058;-71
2022/10/16 18:41:04;;;;;;;18.55;16.65;;;;;;;;;;10182415;28;20056;-70
2022/10/16 18:46:02;;;;;;;17.92;16.02;;;;;;;;;;10178587;28;20070;-71
2022/10/16 18:51:08;;;;;;;20.27;18.58;;;;;;;;;;10181017;28;20067;-71
2022/10/16 18:56:05;;;;;;;20.70;18.92;;;;;;;;;;10183683;28;20061;-71
2022/10/16 19:01:03;;;;;;;22.45;20.40;;;;;;;;;;10180239;28;20412;-71
2022/10/16 19:06:00;;;;;;;22.65;19.42;;;;;;;;;;10177866;28;20062;-71
2022/10/16 19:11:04;;;;;;;26.13;21.40;;;;;;;;;;10176949;28;20054;-71
2022/10/16 19:16:01;;;;;;;23.00;21.00;;;;;;;;;;10186462;28;20049;-71
2022/10/16 19:21:15;;;;;;;23.83;21.67;;;;;;;;;;10171452;28;20132;-71
2022/10/16 19:26:12;;;;;;;22.08;20.10;;;;;;;;;;10182630;28;20054;-71
2022/10/16 19:31:11;;;;;;;25.48;23.27;;;;;;;;;;10183535;28;20060;-71
2022/10/16 19:36:07;;;;;;;26.55;24.05;;;;;;;;;;10175585;28;20447;-71
2022/10/16 19:41:11;;;;;;;27.80;25.45;;;;;;;;;;10178002;28;20399;-69
2022/10/16 19:46:08;;;;;;;28.38;26.05;;;;;;;;;;10184852;28;20457;-68
2022/10/16 19:51:05;;;;;;;28.88;26.65;;;;;;;;;;10183854;28;20055;-69
2022/10/16 19:56:10;;;;;;;32.70;29.77;;;;;;;;;;10180181;28;20044;-70
2022/10/16 20:01:06;;;;;;;31.70;29.13;;;;;;;;;;10180988;28;20042;-70
2022/10/16 20:06:05;;;;;;;32.53;29.98;;;;;;;;;;10175906;28;20054;-70
2022/10/16 20:11:01;;;;;;;31.90;29.65;;;;;;;;;;10177522;28;20042;-70
2022/10/16 20:15:58;;;;;;;33.25;30.63;;;;;;;;;;10176544;28;20054;-71
2022/10/16 20:20:54;;;;;;;31.25;28.90;;;;;;;;;;10177438;28;20054;-70
2022/10/16 20:25:51;;;;;;;35.90;33.03;;;;;;;;;;10176522;28;20050;-71
2022/10/16 20:30:49;;;;;;;36.17;33.42;;;;;;;;;;10170196;28;20042;-70
2022/10/16 20:35:46;;;;;;;36.15;33.38;;;;;;;;;;10176578;28;20504;-70
2022/10/16 20:40:46;;;;;;;35.78;32.97;;;;;;;;;;10177745;28;20048;-71
2022/10/16 20:45:43;;;;;;;34.72;32.08;;;;;;;;;;10176485;28;20044;-71
2022/10/16 20:50:40;;;;;;;35.17;32.60;;;;;;;;;;10170814;28;20054;-71
2022/10/16 20:55:36;;;;;;;36.05;33.65;;;;;;;;;;10180229;28;20052;-70
2022/10/16 21:00:33;;;;;;;37.50;34.90;;;;;;;;;;10178368;28;20086;-71
2022/10/16 21:05:30;;;;;;;36.65;34.13;;;;;;;;;;10181640;28;20046;-71
2022/10/16 21:10:28;;;;;;;34.75;32.58;;;;;;;;;;10175581;28;20041;-71
2022/10/16 21:15:24;;;;;;;40.80;38.10;;;;;;;;;;10184438;28;20045;-71
2022/10/16 21:20:20;;;;;;;36.15;33.30;;;;;;;;;;10182310;28;20054;-71
2022/10/16 21:25:17;;;;;;;36.25;33.63;;;;;;;;;;10178692;28;20538;-71
2022/10/16 21:30:13;;;;;;;37.80;35.00;;;;;;;;;;10181577;28;20045;-71
2022/10/16 21:35:09;;;;;;;40.30;37.63;;;;;;;;;;10180752;28;20038;-71
2022/10/16 21:40:06;;;;;;;40.80;37.95;;;;;;;;;;10184405;28;20046;-71
2022/10/16 21:45:02;;;;;;;43.83;40.00;;;;;;;;;;10184078;28;20400;-71
2022/10/16 21:49:58;;;;;;;44.45;41.55;;;;;;;;;;10178829;28;20412;-71
2022/10/16 21:54:55;;;;;;;43.63;40.55;;;;;;;;;;10179673;28;20058;-70
2022/10/16 21:59:51;;;;;;;48.45;45.17;;;;;;;;;;10184182;28;20526;-71
2022/10/16 22:04:47;;;;;;;46.45;43.65;;;;;;;;;;10173927;28;20061;-71
2022/10/16 22:09:43;;;;;;;50.95;47.72;;;;;;;;;;10180721;28;20388;-71
2022/10/16 22:14:40;;;;;;;51.05;47.88;;;;;;;;;;10188774;28;20053;-71
2022/10/16 22:19:36;;;;;;;48.85;45.65;;;;;;;;;;10176101;28;20684;-70
2022/10/16 22:24:32;;;;;;;53.95;50.72;;;;;;;;;;10175831;28;20045;-70
2022/10/16 22:29:28;;;;;;;51.75;48.47;;;;;;;;;;10176245;28;20053;-71
2022/10/16 22:34:26;;;;;;;52.63;49.42;;;;;;;;;;10180673;28;20504;-71
2022/10/16 22:39:23;;;;;;;53.17;49.58;;;;;;;;;;10171414;28;20459;-70
2022/10/16 22:44:19;;;;;;;52.40;49.03;;;;;;;;;;10176029;28;20052;-70
2022/10/16 22:49:17;;;;;;;56.13;52.67;;;;;;;;;;10178757;28;20559;-71
2022/10/16 22:54:13;;;;;;;52.67;49.35;;;;;;;;;;10185083;28;20058;-71
2022/10/16 22:59:10;;;;;;;58.78;54.95;;;;;;;;;;10177354;28;20069;-71
2022/10/16 23:04:06;;;;;;;58.25;54.58;;;;;;;;;;10185671;28;20042;-71
2022/10/16 23:09:03;;;;;;;59.55;55.78;;;;;;;;;;10185452;28;20448;-71
2022/10/16 23:13:59;;;;;;;56.97;53.53;;;;;;;;;;10181934;28;20412;-70
2022/10/16 23:18:56;;;;;;;61.60;58.00;;;;;;;;;;10178033;28;20048;-70
2022/10/16 23:23:53;;;;;;;62.88;59.38;;;;;;;;;;10179853;28;20459;-71
2022/10/16 23:28:49;;;;;;;61.85;57.97;;;;;;;;;;10184363;28;20042;-71
2022/10/16 23:33:46;;;;;;;66.25;62.65;;;;;;;;;;10187134;28;20544;-71
2022/10/16 23:38:42;;;;;;;72.15;67.82;;;;;;;;;;10179616;28;20096;-71
2022/10/16 23:43:39;;;;;;;71.93;66.97;;;;;;;;;;10182057;28;20046;-71
2022/10/16 23:48:38;;;;;;;77.72;73.65;;;;;;;;;;10174417;28;20063;-71
2022/10/16 23:53:35;;;;;;;82.07;77.68;;;;;;;;;;10178728;28;20056;-70
2022/10/16 23:58:31;;;;;;;85.20;80.47;;;;;;;;;;10184202;28;20057;-71
